createdAt,value
2018-05-07T00:01:50.596Z,19.73
2018-05-07T00:04:19.032Z,19.46
2018-05-07T00:06:47.427Z,19.54
2018-05-07T00:09:15.791Z,19.58
2018-05-07T00:11:44.209Z,19.81
2018-05-07T00:14:12.518Z,19.67
2018-05-07T00:16:41.357Z,19.56
2018-05-07T00:19:09.733Z,19.62
2018-05-07T00:21:38.196Z,19.76
2018-05-07T00:24:06.566Z,19.61
2018-05-07T00:26:34.989Z,19.65
2018-05-07T00:29:03.353Z,19.48
2018-05-07T00:31:31.734Z,19.34
2018-05-07T00:34:00.087Z,19.29
2018-05-07T00:36:28.446Z,19.30
2018-05-07T00:38:56.809Z,19.18
2018-05-07T00:41:25.672Z,18.97
2018-05-07T00:43:54.091Z,19.12
2018-05-07T00:46:22.923Z,19.09
2018-05-07T00:48:51.286Z,19.28
2018-05-07T00:51:19.690Z,19.03
2018-05-07T00:53:48.041Z,19.24
2018-05-07T00:56:16.470Z,19.24
2018-05-07T00:58:44.931Z,19.13
2018-05-07T01:01:13.282Z,19.16
2018-05-07T01:03:41.685Z,19.12
2018-05-07T01:06:10.038Z,19.33
2018-05-07T01:08:38.391Z,19.12
2018-05-07T01:11:06.742Z,19.24
2018-05-07T01:13:35.104Z,19.14
2018-05-07T01:16:03.494Z,19.27
2018-05-07T01:18:31.840Z,19.16
2018-05-07T01:21:00.197Z,19.10
2018-05-07T01:23:28.565Z,19.09
2018-05-07T01:25:57.313Z,19.01
2018-05-07T01:28:25.690Z,19.03
2018-05-07T01:30:54.051Z,19.01
2018-05-07T01:33:22.479Z,18.91
2018-05-07T01:35:51.232Z,18.88
2018-05-07T01:38:19.581Z,18.93
2018-05-07T01:40:47.978Z,19.11
2018-05-07T01:43:16.353Z,18.96
2018-05-07T01:45:45.475Z,18.87
2018-05-07T01:48:13.831Z,18.91
2018-05-07T01:50:42.227Z,18.84
2018-05-07T01:53:10.589Z,18.82
2018-05-07T01:55:40.177Z,18.61
2018-05-07T01:58:08.533Z,18.77
2018-05-07T02:00:37.366Z,18.70
2018-05-07T02:03:05.713Z,18.71
2018-05-07T02:05:34.095Z,18.85
2018-05-07T02:08:02.458Z,18.76
2018-05-07T02:10:31.210Z,18.78
2018-05-07T02:12:59.571Z,18.64
2018-05-07T02:15:27.934Z,18.72
2018-05-07T02:17:56.334Z,18.65
2018-05-07T02:20:24.679Z,18.46
2018-05-07T02:22:53.052Z,18.52
2018-05-07T02:25:21.433Z,18.31
2018-05-07T02:27:49.810Z,18.27
2018-05-07T02:30:18.174Z,18.28
2018-05-07T02:32:46.935Z,18.34
2018-05-07T02:35:15.290Z,18.26
2018-05-07T02:37:43.803Z,18.25
2018-05-07T02:40:12.278Z,18.23
2018-05-07T02:42:40.651Z,18.36
2018-05-07T02:45:09.113Z,18.19
2018-05-07T02:47:37.594Z,18.23
2018-05-07T02:50:05.943Z,18.10
2018-05-07T02:52:34.350Z,18.21
2018-05-07T02:55:02.743Z,18.18
2018-05-07T03:00:05.938Z,18.23
2018-05-07T03:02:34.302Z,18.30
2018-05-07T03:05:02.650Z,18.41
2018-05-07T03:07:31.473Z,18.36
2018-05-07T03:09:59.859Z,18.37
2018-05-07T03:12:28.243Z,18.20
2018-05-07T03:14:56.618Z,18.28
2018-05-07T03:17:24.984Z,18.29
2018-05-07T03:19:53.342Z,18.24
2018-05-07T03:22:21.763Z,18.22
2018-05-07T03:24:50.138Z,18.34
2018-05-07T03:27:18.518Z,18.38
2018-05-07T03:29:46.993Z,18.28
2018-05-07T03:32:15.362Z,18.28
2018-05-07T03:34:43.718Z,18.24
2018-05-07T03:37:12.134Z,18.16
2018-05-07T03:39:40.485Z,18.11
2018-05-07T03:42:08.883Z,17.86
2018-05-07T03:44:37.279Z,18.05
2018-05-07T03:47:05.654Z,18.04
2018-05-07T03:49:34.002Z,18.13
2018-05-07T03:52:02.365Z,18.00
2018-05-07T03:54:30.799Z,17.97
2018-05-07T03:56:59.159Z,18.06
2018-05-07T03:59:27.530Z,18.20
2018-05-07T04:01:56.022Z,18.15
2018-05-07T04:04:24.370Z,18.37
2018-05-07T04:06:52.745Z,18.37
2018-05-07T04:09:21.194Z,18.58
2018-05-07T04:11:49.569Z,18.82
2018-05-07T04:14:17.979Z,18.93
2018-05-07T04:17:04.116Z,19.17
2018-05-07T04:19:50.424Z,19.24
2018-05-07T04:22:36.631Z,19.22
2018-05-07T04:25:05.641Z,19.31
2018-05-07T04:27:34.086Z,20.25
2018-05-07T04:30:03.323Z,21.78
2018-05-07T04:32:32.175Z,23.41
2018-05-07T04:35:00.559Z,24.92
2018-05-07T04:37:28.910Z,26.22
2018-05-07T04:39:57.367Z,27.32
2018-05-07T04:42:26.232Z,28.17
2018-05-07T04:44:54.582Z,28.96
2018-05-07T04:47:23.001Z,29.74
2018-05-07T04:49:51.744Z,30.14
2018-05-07T04:52:20.103Z,30.38
2018-05-07T04:54:48.506Z,30.78
2018-05-07T04:57:16.894Z,31.50
2018-05-07T04:59:45.267Z,31.93
2018-05-07T05:02:13.683Z,32.58
2018-05-07T05:04:42.426Z,33.25
2018-05-07T05:07:10.884Z,33.34
2018-05-07T05:09:39.302Z,34.36
2018-05-07T05:12:07.667Z,34.58
2018-05-07T05:14:36.057Z,35.27
2018-05-07T05:17:04.539Z,35.72
2018-05-07T05:19:33.297Z,36.17
2018-05-07T05:22:01.650Z,35.25
2018-05-07T05:24:30.094Z,36.01
2018-05-07T05:26:58.506Z,36.81
2018-05-07T05:29:27.285Z,37.28
2018-05-07T05:31:56.064Z,36.25
2018-05-07T05:34:24.409Z,36.26
2018-05-07T05:36:52.773Z,36.66
2018-05-07T05:39:21.527Z,37.21
2018-05-07T05:41:50.284Z,37.22
2018-05-07T05:44:18.630Z,37.38
2018-05-07T05:46:46.997Z,37.48
2018-05-07T05:49:15.418Z,37.99
2018-05-07T05:51:43.784Z,38.64
2018-05-07T05:54:12.222Z,38.98
2018-05-07T05:56:40.576Z,38.88
2018-05-07T05:59:09.336Z,39.22
2018-05-07T06:01:37.808Z,39.65
2018-05-07T06:04:06.177Z,40.03
2018-05-07T06:06:34.592Z,40.16
2018-05-07T06:09:02.995Z,40.78
2018-05-07T06:11:31.415Z,40.85
2018-05-07T06:13:59.779Z,41.27
2018-05-07T06:16:28.166Z,41.01
2018-05-07T06:18:56.521Z,40.71
2018-05-07T06:21:24.866Z,40.53
2018-05-07T06:23:53.323Z,40.56
2018-05-07T06:26:21.679Z,39.81
2018-05-07T06:28:50.036Z,40.45
2018-05-07T06:31:18.431Z,41.32
2018-05-07T06:33:46.786Z,41.20
2018-05-07T06:36:15.533Z,39.79
2018-05-07T06:38:43.929Z,38.72
2018-05-07T06:41:12.278Z,38.46
2018-05-07T06:43:40.655Z,38.88
2018-05-07T06:46:09.019Z,39.92
2018-05-07T06:48:37.386Z,39.89
2018-05-07T06:51:05.733Z,40.58
2018-05-07T06:53:34.507Z,41.06
2018-05-07T06:56:02.864Z,40.44
2018-05-07T06:58:31.215Z,40.54
2018-05-07T07:00:59.589Z,41.93
2018-05-07T07:03:27.990Z,42.58
2018-05-07T07:05:56.346Z,41.59
2018-05-07T07:08:24.879Z,42.76
2018-05-07T07:10:53.114Z,42.88
2018-05-07T07:13:21.478Z,43.29
2018-05-07T07:15:49.867Z,43.69
2018-05-07T07:18:18.287Z,43.83
2018-05-07T07:20:46.683Z,43.60
2018-05-07T07:23:15.092Z,42.52
2018-05-07T07:25:43.460Z,41.77
2018-05-07T07:28:12.301Z,41.94
2018-05-07T07:30:40.674Z,42.10
2018-05-07T07:33:09.046Z,41.79
2018-05-07T07:35:37.398Z,42.23
2018-05-07T07:38:05.887Z,43.33
2018-05-07T07:40:34.298Z,42.95
2018-05-07T07:43:02.667Z,42.06
2018-05-07T07:45:31.055Z,42.56
2018-05-07T07:47:59.447Z,42.18
2018-05-07T07:50:27.797Z,42.96
2018-05-07T07:52:56.167Z,42.31
2018-05-07T07:55:24.578Z,43.87
2018-05-07T07:57:52.938Z,44.94
2018-05-07T08:00:21.306Z,45.47
2018-05-07T08:02:49.646Z,45.27
2018-05-07T08:05:18.080Z,45.51
2018-05-07T08:07:46.484Z,45.58
2018-05-07T08:10:15.246Z,45.01
2018-05-07T08:12:43.722Z,44.67
2018-05-07T08:15:12.126Z,43.57
2018-05-07T08:17:40.494Z,42.89
2018-05-07T08:20:08.847Z,42.99
2018-05-07T08:22:37.250Z,43.92
2018-05-07T08:25:05.626Z,43.57
2018-05-07T08:27:34.031Z,43.14
2018-05-07T08:30:02.818Z,42.47
2018-05-07T08:32:31.172Z,43.28
2018-05-07T08:34:59.533Z,42.43
2018-05-07T08:37:27.914Z,43.73
2018-05-07T08:39:56.265Z,41.94
2018-05-07T08:42:25.123Z,41.61
2018-05-07T08:44:53.513Z,40.69
2018-05-07T08:47:22.262Z,39.79
2018-05-07T08:49:50.643Z,40.03
2018-05-07T08:52:19.010Z,39.44
2018-05-07T08:54:47.369Z,39.17
2018-05-07T08:57:15.777Z,39.08
2018-05-07T08:59:44.183Z,39.78
2018-05-07T09:02:12.664Z,39.80
2018-05-07T09:04:41.129Z,39.90
2018-05-07T09:07:09.503Z,39.75
2018-05-07T09:09:37.890Z,40.16
2018-05-07T09:12:06.262Z,39.78
2018-05-07T09:14:34.657Z,40.02
2018-05-07T09:17:03.104Z,40.45
2018-05-07T09:19:31.471Z,40.43
2018-05-07T09:21:59.850Z,40.69
2018-05-07T09:24:28.340Z,41.39
2018-05-07T09:26:56.695Z,40.29
2018-05-07T09:29:25.118Z,40.31
2018-05-07T09:31:53.494Z,39.63
2018-05-07T09:34:21.850Z,40.00
2018-05-07T09:36:50.236Z,39.10
2018-05-07T09:39:18.591Z,38.67
2018-05-07T09:41:46.955Z,39.14
2018-05-07T09:44:15.729Z,38.27
2018-05-07T09:46:44.174Z,38.93
2018-05-07T09:49:12.568Z,38.94
2018-05-07T09:51:40.939Z,39.96
2018-05-07T09:54:09.296Z,40.30
2018-05-07T09:56:55.562Z,39.78
2018-05-07T09:59:23.885Z,38.41
2018-05-07T10:01:52.269Z,39.28
2018-05-07T10:04:21.213Z,39.19
2018-05-07T10:06:50.109Z,39.68
2018-05-07T10:09:18.529Z,40.08
2018-05-07T10:11:46.907Z,41.11
2018-05-07T10:14:15.259Z,40.84
2018-05-07T10:16:43.616Z,41.38
2018-05-07T10:19:12.407Z,40.84
2018-05-07T10:21:41.156Z,41.17
2018-05-07T10:24:09.525Z,39.73
2018-05-07T10:26:37.886Z,39.31
2018-05-07T10:29:06.297Z,39.11
2018-05-07T10:31:34.761Z,39.23
2018-05-07T10:34:03.165Z,38.67
2018-05-07T10:36:31.513Z,38.50
2018-05-07T10:38:59.909Z,39.56
2018-05-07T10:41:28.300Z,38.52
2018-05-07T10:43:56.662Z,38.61
2018-05-07T10:46:25.042Z,38.68
2018-05-07T10:48:53.534Z,37.61
2018-05-07T10:51:21.899Z,37.67
2018-05-07T10:53:50.262Z,36.41
2018-05-07T10:56:18.659Z,36.48
2018-05-07T10:58:47.041Z,36.67
2018-05-07T11:01:15.410Z,36.74
2018-05-07T11:03:43.897Z,36.01
2018-05-07T11:06:12.263Z,35.20
2018-05-07T11:08:40.715Z,34.93
2018-05-07T11:11:09.086Z,33.66
2018-05-07T11:13:37.958Z,33.40
2018-05-07T11:16:06.411Z,33.17
2018-05-07T11:18:34.886Z,31.92
2018-05-07T11:21:03.226Z,30.46
2018-05-07T11:23:31.600Z,29.98
2018-05-07T11:25:59.996Z,29.54
2018-05-07T11:28:28.366Z,29.46
2018-05-07T11:30:56.735Z,29.41
2018-05-07T11:33:25.115Z,29.21
2018-05-07T11:35:53.499Z,29.35
2018-05-07T11:38:21.899Z,29.66
2018-05-07T11:40:50.274Z,30.05
2018-05-07T11:43:18.617Z,29.82
2018-05-07T11:45:47.461Z,28.87
2018-05-07T11:48:16.003Z,27.95
2018-05-07T11:50:44.429Z,27.80
2018-05-07T11:53:12.852Z,28.16
2018-05-07T11:55:41.287Z,28.20
2018-05-07T11:58:09.630Z,28.47
2018-05-07T12:00:38.002Z,28.62
2018-05-07T12:03:06.412Z,28.51
2018-05-07T12:05:34.758Z,28.78
2018-05-07T12:08:03.139Z,28.76
2018-05-07T12:10:31.547Z,29.17
2018-05-07T12:12:59.895Z,28.94
2018-05-07T12:15:28.310Z,28.63
2018-05-07T12:17:56.683Z,28.69
2018-05-07T12:20:25.111Z,29.06
2018-05-07T12:22:53.870Z,29.04
2018-05-07T12:25:22.270Z,28.58
2018-05-07T12:27:50.636Z,28.65
2018-05-07T12:30:19.005Z,28.55
2018-05-07T12:32:47.482Z,28.59
2018-05-07T12:35:15.830Z,28.77
2018-05-07T12:37:44.282Z,29.14
2018-05-07T12:40:12.626Z,28.88
2018-05-07T12:42:40.987Z,28.75
2018-05-07T12:45:09.370Z,28.37
2018-05-07T12:47:37.753Z,28.02
2018-05-07T12:50:06.106Z,28.43
2018-05-07T12:52:34.467Z,28.48
2018-05-07T12:55:02.902Z,28.68
2018-05-07T12:57:31.295Z,28.85
2018-05-07T12:59:59.751Z,28.68
2018-05-07T13:02:28.131Z,28.32
2018-05-07T13:04:56.492Z,28.21
2018-05-07T13:07:24.840Z,28.05
2018-05-07T13:09:53.212Z,28.08
2018-05-07T13:12:21.951Z,28.50
2018-05-07T13:14:50.338Z,28.52
2018-05-07T13:17:18.705Z,28.38
2018-05-07T13:19:47.054Z,28.64
2018-05-07T13:22:15.467Z,28.64
2018-05-07T13:24:43.870Z,28.35
2018-05-07T13:27:12.198Z,28.47
2018-05-07T13:29:40.559Z,28.82
2018-05-07T13:32:08.958Z,28.81
2018-05-07T13:34:37.346Z,28.57
2018-05-07T13:37:05.728Z,29.13
2018-05-07T13:39:34.106Z,29.12
2018-05-07T13:42:02.482Z,29.06
2018-05-07T13:44:30.839Z,29.25
2018-05-07T13:46:59.567Z,28.64
2018-05-07T13:49:27.926Z,28.58
2018-05-07T13:51:56.281Z,28.44
2018-05-07T13:54:24.662Z,28.87
2018-05-07T13:56:53.174Z,28.89
2018-05-07T13:59:21.575Z,28.83
2018-05-07T14:01:50.034Z,28.69
2018-05-07T14:04:18.426Z,28.31
2018-05-07T14:06:46.793Z,28.20
2018-05-07T14:09:15.172Z,28.38
2018-05-07T14:11:43.522Z,28.51
2018-05-07T14:14:11.874Z,28.47
2018-05-07T14:16:40.659Z,28.14
2018-05-07T14:19:09.423Z,28.47
2018-05-07T14:21:37.776Z,28.21
2018-05-07T14:24:06.164Z,28.46
2018-05-07T14:26:34.547Z,29.00
2018-05-07T14:29:02.928Z,28.73
2018-05-07T14:31:31.339Z,28.83
2018-05-07T14:34:00.095Z,29.01
2018-05-07T14:36:28.451Z,28.72
2018-05-07T14:38:56.827Z,28.29
2018-05-07T14:41:25.188Z,28.36
2018-05-07T14:43:53.540Z,28.43
2018-05-07T14:46:22.310Z,28.35
2018-05-07T14:48:50.667Z,28.24
2018-05-07T14:51:19.039Z,28.52
2018-05-07T14:53:47.401Z,28.62
2018-05-07T14:56:15.939Z,28.86
2018-05-07T14:58:44.462Z,29.07
2018-05-07T15:01:12.875Z,28.83
2018-05-07T15:03:41.242Z,28.93
2018-05-07T15:06:09.626Z,28.37
2018-05-07T15:08:38.047Z,28.72
2018-05-07T15:11:06.803Z,29.16
2018-05-07T15:13:35.287Z,28.94
2018-05-07T15:16:03.652Z,28.64
2018-05-07T15:18:32.142Z,28.92
2018-05-07T15:21:00.506Z,28.93
2018-05-07T15:23:28.875Z,28.78
2018-05-07T15:25:57.285Z,28.93
2018-05-07T15:28:25.653Z,29.10
2018-05-07T15:30:54.060Z,29.08
2018-05-07T15:33:22.403Z,29.10
2018-05-07T15:35:50.914Z,29.21
2018-05-07T15:38:19.347Z,28.83
2018-05-07T15:40:47.755Z,28.64
2018-05-07T15:43:16.137Z,29.13
2018-05-07T15:45:44.554Z,29.12
2018-05-07T15:48:13.344Z,28.67
2018-05-07T15:50:42.093Z,28.81
2018-05-07T15:53:10.452Z,29.04
2018-05-07T15:55:38.834Z,28.47
2018-05-07T15:58:07.192Z,28.41
2018-05-07T16:00:35.618Z,28.57
2018-05-07T16:03:04.156Z,28.46
2018-05-07T16:05:32.342Z,28.48
2018-05-07T16:08:00.734Z,28.46
2018-05-07T16:10:29.085Z,27.88
2018-05-07T16:12:57.441Z,28.21
2018-05-07T16:15:26.309Z,28.62
2018-05-07T16:17:54.676Z,28.39
2018-05-07T16:20:23.061Z,27.93
2018-05-07T16:22:51.458Z,28.14
2018-05-07T16:25:19.822Z,28.25
2018-05-07T16:27:48.182Z,28.20
2018-05-07T16:30:16.661Z,28.21
2018-05-07T16:32:45.046Z,28.36
2018-05-07T16:35:13.389Z,28.77
2018-05-07T16:37:41.831Z,28.60
2018-05-07T16:40:10.209Z,28.27
2018-05-07T16:42:38.627Z,28.39
2018-05-07T16:45:06.982Z,28.50
2018-05-07T16:47:35.741Z,28.64
2018-05-07T16:50:04.105Z,28.64
2018-05-07T16:52:32.485Z,28.27
2018-05-07T16:55:02.433Z,28.37
2018-05-07T16:57:30.800Z,28.25
2018-05-07T16:59:59.594Z,27.92
2018-05-07T17:02:27.954Z,28.04
2018-05-07T17:04:56.345Z,28.19
2018-05-07T17:07:24.721Z,28.18
2018-05-07T17:09:53.083Z,27.97
2018-05-07T17:12:21.427Z,28.23
2018-05-07T17:14:49.830Z,28.01
2018-05-07T17:17:18.232Z,27.97
2018-05-07T17:19:46.581Z,28.08
2018-05-07T17:22:14.947Z,28.20
2018-05-07T17:24:43.354Z,27.94
2018-05-07T17:27:11.703Z,27.37
2018-05-07T17:29:40.097Z,28.15
2018-05-07T17:32:08.453Z,27.61
2018-05-07T17:34:36.816Z,27.81
2018-05-07T17:37:05.591Z,28.10
2018-05-07T17:39:33.962Z,28.17
2018-05-07T17:42:02.330Z,28.04
2018-05-07T17:44:48.602Z,27.78
2018-05-07T17:47:34.728Z,27.36
2018-05-07T17:50:03.138Z,27.59
2018-05-07T17:52:31.490Z,27.81
2018-05-07T17:54:59.957Z,27.67
2018-05-07T17:57:28.341Z,27.99
2018-05-07T17:59:56.732Z,28.15
2018-05-07T18:02:25.087Z,27.89
2018-05-07T18:04:53.473Z,27.64
2018-05-07T18:07:21.827Z,27.34
2018-05-07T18:09:50.170Z,27.45
2018-05-07T18:12:19.027Z,27.87
2018-05-07T18:14:47.495Z,27.72
2018-05-07T18:17:15.858Z,27.46
2018-05-07T18:19:44.266Z,27.50
2018-05-07T18:22:12.643Z,27.39
2018-05-07T18:24:41.097Z,27.32
2018-05-07T18:27:09.460Z,27.48
2018-05-07T18:29:37.890Z,27.33
2018-05-07T18:32:06.241Z,27.27
2018-05-07T18:34:34.615Z,27.19
2018-05-07T18:37:02.982Z,27.13
2018-05-07T18:39:31.354Z,27.14
2018-05-07T18:41:59.727Z,26.90
2018-05-07T18:44:28.094Z,26.74
2018-05-07T18:46:56.440Z,26.85
2018-05-07T18:49:24.887Z,26.95
2018-05-07T18:51:53.243Z,26.83
2018-05-07T18:54:22.281Z,26.85
2018-05-07T18:56:50.790Z,26.69
2018-05-07T18:59:19.556Z,26.71
2018-05-07T19:01:47.938Z,26.88
2018-05-07T19:04:16.371Z,26.78
2018-05-07T19:06:44.738Z,26.69
2018-05-07T19:09:13.142Z,26.56
2018-05-07T19:11:41.516Z,26.62
2018-05-07T19:14:09.908Z,26.45
2018-05-07T19:16:38.270Z,26.35
2018-05-07T19:19:06.715Z,26.38
2018-05-07T19:21:35.471Z,26.37
2018-05-07T19:24:03.896Z,26.35
2018-05-07T19:26:32.277Z,26.31
2018-05-07T19:29:00.634Z,25.99
2018-05-07T19:31:29.386Z,26.10
2018-05-07T19:33:57.878Z,26.15
2018-05-07T19:36:26.233Z,26.01
2018-05-07T19:38:54.618Z,25.90
2018-05-07T19:41:23.072Z,25.78
2018-05-07T19:43:51.388Z,25.86
2018-05-07T19:46:19.759Z,25.80
2018-05-07T19:48:48.174Z,25.69
2018-05-07T19:51:16.587Z,25.67
2018-05-07T19:53:44.994Z,25.60
2018-05-07T19:56:13.381Z,25.46
2018-05-07T19:58:41.759Z,25.54
2018-05-07T20:01:10.137Z,25.43
2018-05-07T20:03:38.621Z,25.29
2018-05-07T20:06:07.013Z,25.26
2018-05-07T20:08:35.490Z,25.10
2018-05-07T20:11:03.861Z,25.10
2018-05-07T20:13:32.228Z,25.27
2018-05-07T20:16:00.612Z,25.13
2018-05-07T20:18:29.048Z,24.99
2018-05-07T20:20:57.917Z,25.16
2018-05-07T20:23:26.726Z,25.04
2018-05-07T20:25:55.509Z,24.69
2018-05-07T20:28:24.250Z,24.87
2018-05-07T20:30:52.605Z,24.88
2018-05-07T20:33:21.007Z,24.74
2018-05-07T20:35:49.358Z,24.77
2018-05-07T20:38:17.768Z,24.49
2018-05-07T20:40:46.256Z,24.46
2018-05-07T20:43:14.835Z,24.35
2018-05-07T20:45:43.206Z,24.57
2018-05-07T20:48:11.592Z,24.45
2018-05-07T20:50:39.942Z,24.53
2018-05-07T20:53:08.308Z,24.41
2018-05-07T20:55:36.703Z,24.45
2018-05-07T20:58:05.078Z,24.44
2018-05-07T21:00:33.456Z,24.54
2018-05-07T21:03:02.114Z,24.38
2018-05-07T21:05:30.872Z,24.42
2018-05-07T21:07:59.221Z,24.48
2018-05-07T21:10:27.618Z,24.62
2018-05-07T21:12:56.877Z,24.74
2018-05-07T21:15:25.243Z,24.49
2018-05-07T21:17:54.011Z,24.59
2018-05-07T21:20:22.402Z,24.58
2018-05-07T21:22:51.171Z,24.41
2018-05-07T21:25:19.554Z,24.43
2018-05-07T21:27:47.907Z,24.27
2018-05-07T21:30:16.273Z,24.14
2018-05-07T21:32:44.630Z,24.05
2018-05-07T21:35:13.013Z,24.01
2018-05-07T21:37:41.370Z,23.92
2018-05-07T21:40:11.040Z,23.92
2018-05-07T21:42:39.450Z,23.85
2018-05-07T21:45:08.217Z,24.00
2018-05-07T21:47:36.593Z,23.75
2018-05-07T21:50:05.048Z,23.95
2018-05-07T21:52:33.469Z,23.70
2018-05-07T21:55:02.247Z,23.91
2018-05-07T21:57:30.614Z,23.91
2018-05-07T21:59:58.962Z,23.29
2018-05-07T22:02:27.356Z,23.55
2018-05-07T22:04:55.706Z,23.37
2018-05-07T22:07:24.081Z,23.34
2018-05-07T22:09:52.470Z,23.62
2018-05-07T22:12:20.928Z,23.72
2018-05-07T22:14:49.240Z,23.68
2018-05-07T22:17:17.606Z,23.33
2018-05-07T22:19:45.967Z,23.14
2018-05-07T22:22:14.379Z,23.17
2018-05-07T22:24:42.838Z,23.17
2018-05-07T22:27:11.185Z,22.80
2018-05-07T22:29:40.042Z,22.92
2018-05-07T22:32:08.456Z,23.02
2018-05-07T22:34:36.887Z,23.09
2018-05-07T22:37:05.243Z,22.99
2018-05-07T22:39:33.624Z,23.08
2018-05-07T22:42:02.043Z,23.24
2018-05-07T22:44:30.393Z,23.12
2018-05-07T22:46:58.778Z,23.14
2018-05-07T22:49:27.174Z,23.04
2018-05-07T22:51:56.506Z,23.23
2018-05-07T22:54:24.869Z,23.06
2018-05-07T22:56:53.286Z,22.82
2018-05-07T22:59:21.638Z,22.89
2018-05-07T23:01:50.409Z,22.94
2018-05-07T23:04:18.780Z,22.84
2018-05-07T23:07:02.668Z,22.78
2018-05-07T23:09:31.501Z,22.73
2018-05-07T23:11:59.882Z,22.74
2018-05-07T23:14:28.373Z,22.36
2018-05-07T23:16:56.839Z,22.47
2018-05-07T23:19:25.255Z,22.54
2018-05-07T23:21:54.030Z,22.54
2018-05-07T23:24:22.374Z,22.61
2018-05-07T23:26:50.765Z,22.69
2018-05-07T23:29:19.153Z,22.51
2018-05-07T23:31:47.498Z,22.55
2018-05-07T23:34:15.871Z,22.40
2018-05-07T23:36:44.257Z,22.21
2018-05-07T23:39:12.610Z,22.25
2018-05-07T23:41:41.393Z,22.04
2018-05-07T23:44:10.170Z,22.11
2018-05-07T23:46:38.520Z,22.08
2018-05-07T23:49:06.866Z,22.15
2018-05-07T23:51:35.241Z,22.20
2018-05-07T23:54:03.592Z,22.14
2018-05-07T23:56:32.850Z,21.93
2018-05-07T23:59:01.239Z,22.02
